Time,TemperatureF,DewpointF,PressureIn,WindDirection,WindDirectionDegrees,WindSpeedMPH,WindSpeedGustMPH,Humidity,HourlyPrecipIn,Conditions,Clouds,dailyrainin,SolarRadiationWatts/m^2,SoftwareType,DateUTC
2013-11-30 00:03:00,26.0,16.0,30.72,NW,323,0.0,0.0,67,0.00,,,0.00,0,weatherlink.com 1.10,2013-11-30 05:03:00,
2013-11-30 00:18:00,25.3,16.0,30.72,NW,323,0.0,0.0,69,0.00,,,0.00,0,weatherlink.com 1.10,2013-11-30 05:18:00,
2013-11-30 00:33:00,24.4,17.0,30.72,NW,323,0.0,0.0,72,0.00,,,0.00,0,weatherlink.com 1.10,2013-11-30 05:33:00,
2013-11-30 00:48:00,23.7,16.0,30.73,NW,323,0.0,0.0,73,0.00,,,0.00,0,weatherlink.com 1.10,2013-11-30 05:48:00,
2013-11-30 01:04:00,23.1,16.0,30.73,NW,323,0.0,0.0,74,0.00,,,0.00,0,weatherlink.com 1.10,2013-11-30 06:04:00,
2013-11-30 01:19:00,22.5,16.0,30.73,NW,323,0.0,0.0,76,0.00,,,0.00,0,weatherlink.com 1.10,2013-11-30 06:19:00,
2013-11-30 01:34:00,22.2,16.0,30.74,NW,323,0.0,0.0,77,0.00,,,0.00,0,weatherlink.com 1.10,2013-11-30 06:34:00,
2013-11-30 01:49:00,22.3,15.0,30.74,North,360,0.0,6.0,73,0.00,,,0.00,0,weatherlink.com 1.10,2013-11-30 06:49:00,
2013-11-30 02:04:00,22.7,14.0,30.75,North,360,0.0,2.0,69,0.00,,,0.00,0,weatherlink.com 1.10,2013-11-30 07:04:00,
2013-11-30 02:19:00,23.1,13.0,30.75,NNW,348,0.0,3.0,65,0.00,,,0.00,0,weatherlink.com 1.10,2013-11-30 07:19:00,
2013-11-30 02:34:00,22.9,13.0,30.75,NNW,348,0.0,0.0,66,0.00,,,0.00,0,weatherlink.com 1.10,2013-11-30 07:34:00,
2013-11-30 02:49:00,22.4,13.0,30.75,NNW,348,0.0,2.0,66,0.00,,,0.00,0,weatherlink.com 1.10,2013-11-30 07:49:00,
2013-11-30 03:04:00,22.2,12.0,30.75,North,349,0.0,4.0,65,0.00,,,0.00,0,weatherlink.com 1.10,2013-11-30 08:04:00,
2013-11-30 03:19:00,22.0,11.0,30.75,NNW,348,0.0,0.0,64,0.00,,,0.00,0,weatherlink.com 1.10,2013-11-30 08:19:00,
2013-11-30 03:34:00,21.9,12.0,30.74,NNW,348,0.0,1.0,65,0.00,,,0.00,0,weatherlink.com 1.10,2013-11-30 08:34:00,
2013-11-30 03:49:00,21.6,11.0,30.74,NNW,348,0.0,2.0,65,0.00,,,0.00,0,weatherlink.com 1.10,2013-11-30 08:49:00,
2013-11-30 04:04:00,21.3,12.0,30.75,NNW,348,0.0,1.0,66,0.00,,,0.00,0,weatherlink.com 1.10,2013-11-30 09:04:00,
2013-11-30 04:19:00,21.1,11.0,30.75,NNW,346,0.0,2.0,66,0.00,,,0.00,0,weatherlink.com 1.10,2013-11-30 09:19:00,
2013-11-30 04:34:00,20.9,11.0,30.76,NNW,346,0.0,0.0,66,0.00,,,0.00,0,weatherlink.com 1.10,2013-11-30 09:34:00,
2013-11-30 04:49:00,20.6,11.0,30.75,NNW,346,0.0,2.0,67,0.00,,,0.00,0,weatherlink.com 1.10,2013-11-30 09:49:00,
2013-11-30 05:04:00,20.4,11.0,30.76,NNW,335,0.0,3.0,68,0.00,,,0.00,0,weatherlink.com 1.10,2013-11-30 10:04:00,
2013-11-30 05:19:00,20.4,11.0,30.76,North,355,0.0,3.0,68,0.00,,,0.00,0,weatherlink.com 1.10,2013-11-30 10:19:00,
2013-11-30 05:34:00,20.2,11.0,30.76,North,355,1.0,3.0,67,0.00,,,0.00,0,weatherlink.com 1.10,2013-11-30 10:34:00,
2013-11-30 05:49:00,19.9,11.0,30.76,NNW,346,0.0,3.0,67,0.00,,,0.00,0,weatherlink.com 1.10,2013-11-30 10:49:00,
2013-11-30 06:03:00,19.7,11.0,30.77,NNW,346,0.0,1.0,69,0.00,,,0.00,0,weatherlink.com 1.10,2013-11-30 11:03:00,
2013-11-30 06:19:00,19.4,11.0,30.77,NW,325,0.0,3.0,71,0.00,,,0.00,0,weatherlink.com 1.10,2013-11-30 11:19:00,
2013-11-30 06:35:00,19.1,11.0,30.77,NW,325,0.0,1.0,71,0.00,,,0.00,0,weatherlink.com 1.10,2013-11-30 11:35:00,
2013-11-30 06:50:00,18.8,12.0,30.77,NW,325,0.0,1.0,74,0.00,,,0.00,0,weatherlink.com 1.10,2013-11-30 11:50:00,
2013-11-30 07:05:00,18.4,12.0,30.77,NW,325,0.0,0.0,75,0.00,,,0.00,11,weatherlink.com 1.10,2013-11-30 12:05:00,
2013-11-30 07:19:00,18.4,12.0,30.77,NW,325,0.0,1.0,75,0.00,,,0.00,18,weatherlink.com 1.10,2013-11-30 12:19:00,
2013-11-30 07:35:00,18.7,11.0,30.77,NW,325,0.0,2.0,73,0.00,,,0.00,23,weatherlink.com 1.10,2013-11-30 12:35:00,
2013-11-30 07:49:00,19.4,12.0,30.77,NNW,344,0.0,4.0,72,0.00,,,0.00,26,weatherlink.com 1.10,2013-11-30 12:49:00,
2013-11-30 08:06:00,20.5,12.0,30.77,North,350,3.0,11.0,70,0.00,,,0.00,70,weatherlink.com 1.10,2013-11-30 13:06:00,
2013-11-30 08:20:00,21.3,13.0,30.76,NE,45,6.0,8.0,71,0.00,,,0.00,86,weatherlink.com 1.10,2013-11-30 13:20:00,
2013-11-30 08:36:00,21.5,13.0,30.77,North,5,9.0,10.0,70,0.00,,,0.00,93,weatherlink.com 1.10,2013-11-30 13:36:00,
2013-11-30 08:50:00,22.0,14.0,30.76,NNE,28,3.0,9.0,70,0.00,,,0.00,91,weatherlink.com 1.10,2013-11-30 13:50:00,
2013-11-30 09:06:00,23.0,14.0,30.77,NNE,17,3.0,8.0,68,0.00,,,0.00,229,weatherlink.com 1.10,2013-11-30 14:06:00,
2013-11-30 09:21:00,24.0,14.0,30.77,NE,46,4.0,5.0,66,0.00,,,0.00,232,weatherlink.com 1.10,2013-11-30 14:21:00,
2013-11-30 09:37:00,24.6,14.0,30.77,NE,36,0.0,10.0,63,0.00,,,0.00,348,weatherlink.com 1.10,2013-11-30 14:37:00,
2013-11-30 09:52:00,25.6,14.0,30.76,NNE,12,0.0,9.0,61,0.00,,,0.00,373,weatherlink.com 1.10,2013-11-30 14:52:00,
2013-11-30 10:06:00,26.6,14.0,30.75,NNE,29,5.0,8.0,60,0.00,,,0.00,394,weatherlink.com 1.10,2013-11-30 15:06:00,
2013-11-30 10:22:00,27.2,14.0,30.75,NNW,342,0.0,7.0,59,0.00,,,0.00,418,weatherlink.com 1.10,2013-11-30 15:22:00,
2013-11-30 10:36:00,28.0,15.0,30.74,North,5,2.0,7.0,59,0.00,,,0.00,438,weatherlink.com 1.10,2013-11-30 15:36:00,
2013-11-30 10:51:00,29.0,16.0,30.73,NNE,25,1.0,4.0,59,0.00,,,0.00,445,weatherlink.com 1.10,2013-11-30 15:51:00,
2013-11-30 11:07:00,30.1,16.0,30.72,WNW,298,0.0,2.0,57,0.00,,,0.00,461,weatherlink.com 1.10,2013-11-30 16:07:00,
2013-11-30 11:22:00,31.9,17.0,30.72,SSW,207,0.0,4.0,55,0.00,,,0.00,466,weatherlink.com 1.10,2013-11-30 16:22:00,
2013-11-30 11:38:00,32.9,18.0,30.71,ESE,120,2.0,5.0,54,0.00,,,0.00,462,weatherlink.com 1.10,2013-11-30 16:38:00,
2013-11-30 11:52:00,33.6,18.0,30.70,SE,140,0.0,2.0,53,0.00,,,0.00,461,weatherlink.com 1.10,2013-11-30 16:52:00,
2013-11-30 12:07:00,34.7,18.0,30.70,SSW,196,2.0,5.0,51,0.00,,,0.00,461,weatherlink.com 1.10,2013-11-30 17:07:00,
2013-11-30 12:22:00,34.8,18.0,30.69,SSE,166,3.0,5.0,50,0.00,,,0.00,443,weatherlink.com 1.10,2013-11-30 17:22:00,
2013-11-30 12:38:00,34.7,19.0,30.68,SE,145,1.0,5.0,52,0.00,,,0.00,403,weatherlink.com 1.10,2013-11-30 17:38:00,
2013-11-30 12:53:00,34.1,20.0,30.67,SSE,156,2.0,6.0,56,0.00,,,0.00,408,weatherlink.com 1.10,2013-11-30 17:53:00,
2013-11-30 13:09:00,34.1,20.0,30.66,SSW,192,3.0,6.0,57,0.00,,,0.00,404,weatherlink.com 1.10,2013-11-30 18:09:00,
2013-11-30 13:24:00,34.6,21.0,30.66,SSE,161,6.0,8.0,58,0.00,,,0.00,403,weatherlink.com 1.10,2013-11-30 18:24:00,
2013-11-30 13:38:00,34.8,22.0,30.64,SSW,211,2.0,7.0,60,0.00,,,0.00,380,weatherlink.com 1.10,2013-11-30 18:38:00,
2013-11-30 13:53:00,34.8,22.0,30.64,SW,214,2.0,7.0,59,0.00,,,0.00,346,weatherlink.com 1.10,2013-11-30 18:53:00,
2013-11-30 14:09:00,35.0,22.0,30.63,SSE,153,2.0,7.0,60,0.00,,,0.00,114,weatherlink.com 1.10,2013-11-30 19:09:00,
2013-11-30 14:25:00,35.1,22.0,30.62,South,181,2.0,8.0,60,0.00,,,0.00,216,weatherlink.com 1.10,2013-11-30 19:25:00,
2013-11-30 14:40:00,35.2,23.0,30.63,South,180,0.0,4.0,62,0.00,,,0.00,202,weatherlink.com 1.10,2013-11-30 19:40:00,
2013-11-30 14:55:00,35.1,24.0,30.62,SSE,154,2.0,5.0,64,0.00,,,0.00,172,weatherlink.com 1.10,2013-11-30 19:55:00,
2013-11-30 15:09:00,34.7,24.0,30.62,South,190,3.0,3.0,66,0.00,,,0.00,88,weatherlink.com 1.10,2013-11-30 20:09:00,
2013-11-30 15:26:00,34.6,24.0,30.62,South,190,0.0,4.0,66,0.00,,,0.00,49,weatherlink.com 1.10,2013-11-30 20:26:00,
2013-11-30 15:39:00,34.4,24.0,30.61,South,190,1.0,3.0,67,0.00,,,0.00,37,weatherlink.com 1.10,2013-11-30 20:39:00,
2013-11-30 15:56:00,34.2,25.0,30.61,South,190,0.0,1.0,68,0.00,,,0.00,21,weatherlink.com 1.10,2013-11-30 20:56:00,
2013-11-30 16:10:00,33.7,25.0,30.60,South,190,0.0,0.0,69,0.00,,,0.00,9,weatherlink.com 1.10,2013-11-30 21:10:00,
2013-11-30 16:25:00,32.9,24.0,30.59,South,190,0.0,1.0,71,0.00,,,0.00,0,weatherlink.com 1.10,2013-11-30 21:25:00,
2013-11-30 16:41:00,31.8,24.0,30.59,South,190,0.0,2.0,73,0.00,,,0.00,0,weatherlink.com 1.10,2013-11-30 21:41:00,
2013-11-30 16:55:00,30.8,24.0,30.59,South,190,0.0,0.0,75,0.00,,,0.00,0,weatherlink.com 1.10,2013-11-30 21:55:00,
2013-11-30 17:11:00,30.1,23.0,30.59,South,190,0.0,1.0,76,0.00,,,0.00,0,weatherlink.com 1.10,2013-11-30 22:11:00,
2013-11-30 17:25:00,29.7,23.0,30.58,South,190,0.0,0.0,77,0.00,,,0.00,0,weatherlink.com 1.10,2013-11-30 22:25:00,
2013-11-30 17:41:00,29.5,23.0,30.57,South,190,0.0,0.0,78,0.00,,,0.00,0,weatherlink.com 1.10,2013-11-30 22:41:00,
2013-11-30 17:56:00,29.0,23.0,30.57,South,190,0.0,0.0,79,0.00,,,0.00,0,weatherlink.com 1.10,2013-11-30 22:56:00,
2013-11-30 18:12:00,28.7,23.0,30.57,South,190,0.0,0.0,80,0.00,,,0.00,0,weatherlink.com 1.10,2013-11-30 23:12:00,
2013-11-30 18:26:00,28.4,23.0,30.55,South,190,0.0,0.0,81,0.00,,,0.00,0,weatherlink.com 1.10,2013-11-30 23:26:00,
2013-11-30 18:41:00,28.0,23.0,30.55,South,190,0.0,1.0,82,0.00,,,0.00,0,weatherlink.com 1.10,2013-11-30 23:41:00,
2013-11-30 18:57:00,27.8,23.0,30.55,South,190,0.0,1.0,83,0.00,,,0.00,0,weatherlink.com 1.10,2013-11-30 23:57:00,
2013-11-30 19:11:00,27.6,23.0,30.55,South,190,0.0,0.0,83,0.00,,,0.00,0,weatherlink.com 1.10,2013-12-01 00:11:00,
2013-11-30 19:27:00,27.5,23.0,30.54,South,190,0.0,0.0,84,0.00,,,0.00,0,weatherlink.com 1.10,2013-12-01 00:27:00,
2013-11-30 19:42:00,27.4,23.0,30.53,South,190,0.0,0.0,84,0.00,,,0.00,0,weatherlink.com 1.10,2013-12-01 00:42:00,
2013-11-30 19:58:00,27.3,23.0,30.53,South,190,0.0,0.0,85,0.00,,,0.00,0,weatherlink.com 1.10,2013-12-01 00:58:00,
2013-11-30 20:13:00,27.1,23.0,30.52,South,190,0.0,0.0,85,0.00,,,0.00,0,weatherlink.com 1.10,2013-12-01 01:13:00,
2013-11-30 20:27:00,27.1,24.0,30.50,South,190,0.0,0.0,86,0.00,,,0.00,0,weatherlink.com 1.10,2013-12-01 01:27:00,
2013-11-30 20:43:00,27.5,24.0,30.50,South,190,0.0,0.0,86,0.00,,,0.00,0,weatherlink.com 1.10,2013-12-01 01:43:00,
2013-11-30 20:58:00,27.8,24.0,30.49,South,190,0.0,0.0,86,0.00,,,0.00,0,weatherlink.com 1.10,2013-12-01 01:58:00,
2013-11-30 21:13:00,27.9,24.0,30.49,South,190,0.0,1.0,86,0.00,,,0.00,0,weatherlink.com 1.10,2013-12-01 02:13:00,
2013-11-30 21:28:00,28.0,24.0,30.48,South,190,0.0,1.0,86,0.00,,,0.00,0,weatherlink.com 1.10,2013-12-01 02:28:00,
2013-11-30 21:43:00,28.1,25.0,30.47,South,190,0.0,0.0,86,0.00,,,0.00,0,weatherlink.com 1.10,2013-12-01 02:43:00,
2013-11-30 21:58:00,28.1,25.0,30.47,South,190,0.0,0.0,86,0.00,,,0.00,0,weatherlink.com 1.10,2013-12-01 02:58:00,
2013-11-30 22:14:00,28.2,25.0,30.46,South,190,0.0,0.0,86,0.00,,,0.00,0,weatherlink.com 1.10,2013-12-01 03:14:00,
2013-11-30 22:29:00,28.4,25.0,30.46,South,190,0.0,0.0,86,0.00,,,0.00,0,weatherlink.com 1.10,2013-12-01 03:29:00,
2013-11-30 22:44:00,28.7,25.0,30.45,South,190,0.0,0.0,86,0.00,,,0.00,0,weatherlink.com 1.10,2013-12-01 03:44:00,
2013-11-30 22:59:00,28.9,25.0,30.45,South,190,0.0,0.0,86,0.00,,,0.00,0,weatherlink.com 1.10,2013-12-01 03:59:00,
2013-11-30 23:15:00,29.1,25.0,30.43,South,190,0.0,0.0,86,0.00,,,0.00,0,weatherlink.com 1.10,2013-12-01 04:15:00,
2013-11-30 23:29:00,29.3,26.0,30.43,South,190,0.0,0.0,86,0.00,,,0.00,0,weatherlink.com 1.10,2013-12-01 04:29:00,
2013-11-30 23:45:00,29.5,26.0,30.42,South,190,0.0,0.0,86,0.00,,,0.00,0,weatherlink.com 1.10,2013-12-01 04:45:00,